Time;durP1;ratioP1;P1;durP2;ratioP2;P2;SDS_P1;SDS_P2;PMS_P1;PMS_P2;Temp;Humidity;BMP_temperature;BMP_pressure;BME280_temperature;BME280_humidity;BME280_pressure;Samples;Min_cycle;Max_cycle;Signal;HPM_P1;HPM_P2
2022/07/08 00:00:38;;;;;;;11.50;2.70;;;;;;;-148.88;85.17;76528.84;4999792;28;20092;-73
2022/07/08 00:03:04;;;;;;;10.55;2.53;;;;;;;-148.88;85.16;76532.91;4999986;28;20023;-73
2022/07/08 00:05:29;;;;;;;12.40;2.47;;;;;;;-148.88;83.72;76526.81;4999926;28;20033;-74
2022/07/08 00:07:54;;;;;;;10.13;2.63;;;;;;;-148.88;84.12;76536.97;4999914;28;20030;-73
2022/07/08 00:10:21;;;;;;;8.65;2.40;;;;;;;-148.88;84.20;76528.84;4999815;28;20026;-75
2022/07/08 00:12:46;;;;;;;11.20;2.45;;;;;;;-148.88;83.97;76541.03;4999835;28;20026;-73
2022/07/08 00:15:12;;;;;;;11.90;2.72;;;;;;;-148.88;83.01;76541.03;4999997;28;20033;-73
2022/07/08 00:17:37;;;;;;;11.10;2.28;;;;;;;-148.88;83.49;76543.06;5000104;28;20018;-74
2022/07/08 00:20:04;;;;;;;9.68;2.50;;;;;;;-148.88;83.35;76514.63;4999850;28;20057;-75
2022/07/08 00:22:29;;;;;;;9.93;2.50;;;;;;;-148.88;84.22;76524.78;5000296;28;20014;-73
2022/07/08 00:24:54;;;;;;;9.30;2.40;;;;;;;-148.88;84.75;76530.88;4999777;28;20050;-74
2022/07/08 00:27:20;;;;;;;16.70;3.50;;;;;;;-148.88;85.27;76536.97;4999765;28;20135;-73
2022/07/08 00:29:45;;;;;;;14.25;2.70;;;;;;;-148.88;85.61;76541.03;4999650;28;20108;-74
2022/07/08 00:32:10;;;;;;;14.13;2.60;;;;;;;-148.88;85.79;76534.94;4999607;28;20026;-74
2022/07/08 00:34:36;;;;;;;10.25;2.65;;;;;;;-148.88;86.17;76543.06;4998419;28;20045;-75
2022/07/08 00:37:03;;;;;;;12.20;2.67;;;;;;;-148.88;86.26;76532.91;4999678;28;20026;-74
2022/07/08 00:39:28;;;;;;;11.38;2.80;;;;;;;-148.88;86.19;76532.91;4999630;28;20037;-74
2022/07/08 00:41:53;;;;;;;12.98;2.25;;;;;;;-148.88;86.21;76543.06;4999896;28;20023;-74
2022/07/08 00:44:18;;;;;;;9.60;2.33;;;;;;;-148.88;85.74;76526.81;4999623;28;20034;-74
2022/07/08 00:46:44;;;;;;;12.52;2.67;;;;;;;-148.88;86.58;76534.94;4996653;28;20030;-74
2022/07/08 00:49:09;;;;;;;11.52;2.40;;;;;;;-148.88;85.90;76545.09;4996668;28;20033;-74
2022/07/08 00:51:35;;;;;;;10.80;2.80;;;;;;;-148.88;86.12;76555.25;4996485;28;20171;-73
2022/07/08 00:54:01;;;;;;;11.77;2.67;;;;;;;-148.88;86.20;76559.31;4996552;28;20027;-73
2022/07/08 00:56:27;;;;;;;16.83;3.20;;;;;;;-148.88;85.79;76555.25;4996655;28;20031;-74
2022/07/08 00:58:53;;;;;;;9.15;2.65;;;;;;;-148.88;85.64;76557.28;4996795;28;20030;-74
2022/07/08 01:01:19;;;;;;;15.45;3.58;;;;;;;-148.88;85.28;76565.41;4996171;28;20510;-73
2022/07/08 01:03:45;;;;;;;11.40;2.83;;;;;;;-148.88;86.20;76561.34;4996208;28;20105;-73
2022/07/08 01:06:10;;;;;;;13.20;2.83;;;;;;;-148.88;86.20;76571.50;4996522;28;20110;-74
2022/07/08 01:08:37;;;;;;;11.55;2.60;;;;;;;-148.88;86.38;76573.53;4996106;28;20028;-74
2022/07/08 01:11:02;;;;;;;11.52;2.47;;;;;;;-148.88;86.29;76571.50;4996182;28;20026;-74
2022/07/08 01:13:28;;;;;;;10.43;2.33;;;;;;;-148.88;86.08;76573.53;4996213;28;20392;-74
2022/07/08 01:15:53;;;;;;;10.85;2.30;;;;;;;-148.88;85.40;76571.50;4996212;28;20034;-74
2022/07/08 01:18:29;;;;;;;11.07;2.70;;;;;;;-148.88;86.00;76561.34;4996512;28;20027;-74
2022/07/08 01:20:56;;;;;;;12.52;2.80;;;;;;;-148.88;86.17;76573.53;4994619;28;20026;-74
2022/07/08 01:23:22;;;;;;;11.00;2.40;;;;;;;-148.88;85.05;76565.41;4996207;28;20059;-74
2022/07/08 01:25:47;;;;;;;14.05;2.63;;;;;;;-148.88;84.81;76553.22;4995848;28;20030;-74
2022/07/08 01:28:14;;;;;;;12.35;2.75;;;;;;;-148.88;84.50;76553.22;4995841;28;20046;-73
2022/07/08 01:30:39;;;;;;;9.55;2.70;;;;;;;-148.88;84.72;76561.34;4995576;28;20064;-73
2022/07/08 01:33:05;;;;;;;10.50;3.05;;;;;;;-148.88;85.21;76567.44;4995903;28;20084;-74
2022/07/08 01:35:30;;;;;;;14.32;2.65;;;;;;;-148.88;85.27;76553.22;4994454;28;20022;-74
2022/07/08 01:37:56;;;;;;;9.23;2.53;;;;;;;-148.88;85.80;76553.22;4995641;28;20026;-74
2022/07/08 01:40:21;;;;;;;14.32;3.05;;;;;;;-148.88;85.57;76557.28;4994255;28;20026;-73
2022/07/08 01:42:46;;;;;;;9.75;2.40;;;;;;;-148.88;86.07;76575.56;4995465;28;20034;-74
2022/07/08 01:45:11;;;;;;;9.45;2.53;;;;;;;-148.88;85.93;76565.41;4995516;28;20396;-74
2022/07/08 01:47:37;;;;;;;11.65;2.70;;;;;;;-148.88;85.64;76577.59;4995951;28;20030;-74
2022/07/08 01:50:03;;;;;;;10.88;2.60;;;;;;;-148.88;85.38;76565.41;4995467;28;20026;-75
2022/07/08 01:52:28;;;;;;;6.40;1.95;;;;;;;-148.88;84.73;76561.34;4995574;28;20026;-74
2022/07/08 01:54:53;;;;;;;12.02;2.20;;;;;;;-148.88;85.88;76569.47;4995318;28;20030;-74
2022/07/08 01:57:21;;;;;;;10.52;2.38;;;;;;;-148.88;85.59;76565.41;4994485;28;20103;-74
2022/07/08 01:59:48;;;;;;;8.73;2.63;;;;;;;-148.88;85.36;76561.34;4994866;28;20484;-74
2022/07/08 02:02:15;;;;;;;9.93;2.33;;;;;;;-148.88;86.05;76571.50;4995082;28;20046;-74
2022/07/08 02:04:41;;;;;;;12.40;2.38;;;;;;;-148.88;86.24;76579.63;4993872;28;20029;-74
2022/07/08 02:07:07;;;;;;;9.43;2.85;;;;;;;-148.88;85.93;76563.38;4995496;28;20026;-74
2022/07/08 02:09:34;;;;;;;10.10;2.53;;;;;;;-148.88;86.02;76567.44;4994925;28;20369;-74
2022/07/08 02:12:18;;;;;;;12.60;2.40;;;;;;;-148.88;85.88;76567.44;4994938;28;20022;-74
2022/07/08 02:14:52;;;;;;;11.93;2.80;;;;;;;-148.88;85.57;76561.34;4994945;28;20101;-74
2022/07/08 02:17:20;;;;;;;9.32;2.05;;;;;;;-148.88;85.51;76577.59;4995212;28;20022;-73
2022/07/08 02:19:45;;;;;;;12.10;2.80;;;;;;;-148.88;85.99;76585.72;4994810;28;20027;-73
2022/07/08 02:22:12;;;;;;;11.82;2.28;;;;;;;-148.88;86.30;76583.69;4995008;28;20022;-73
2022/07/08 02:24:37;;;;;;;8.77;2.13;;;;;;;-148.88;86.41;76593.84;4995025;28;20109;-74
2022/07/08 02:27:04;;;;;;;11.23;2.67;;;;;;;-148.88;86.47;76593.84;4993431;28;20109;-74
2022/07/08 02:29:29;;;;;;;8.10;2.38;;;;;;;-148.88;86.59;76593.84;4994669;28;20033;-73
2022/07/08 02:31:55;;;;;;;9.70;2.55;;;;;;;-148.88;86.99;76593.84;4994600;28;20026;-74
2022/07/08 02:34:20;;;;;;;11.93;2.60;;;;;;;-148.88;86.71;76593.84;4994530;28;20029;-74
2022/07/08 02:36:45;;;;;;;8.00;2.47;;;;;;;-148.88;87.21;76587.75;4994517;28;20105;-74
2022/07/08 02:39:12;;;;;;;8.15;2.10;;;;;;;-148.88;86.56;76585.72;4994424;28;20030;-74
2022/07/08 02:41:38;;;;;;;11.20;2.70;;;;;;;-148.88;87.21;76595.88;4994721;28;20102;-73
2022/07/08 02:44:05;;;;;;;8.57;2.58;;;;;;;-148.88;87.11;76599.94;4994387;28;20030;-73
2022/07/08 02:46:30;;;;;;;16.58;2.80;;;;;;;-148.88;86.69;76591.81;4994437;28;20022;-73
2022/07/08 02:48:55;;;;;;;7.72;3.10;;;;;;;-148.88;86.86;76591.81;4994210;28;20023;-74
2022/07/08 02:51:20;;;;;;;9.60;2.20;;;;;;;-148.88;87.60;76597.91;4994544;28;20117;-74
2022/07/08 02:53:46;;;;;;;8.90;2.55;;;;;;;-148.88;87.28;76595.88;4994180;28;20067;-73
2022/07/08 02:56:11;;;;;;;11.32;2.50;;;;;;;-148.88;86.43;76577.59;4992984;28;20484;-73
2022/07/08 02:58:36;;;;;;;10.80;2.58;;;;;;;-148.88;87.33;76589.78;4994140;28;20077;-74
2022/07/08 03:01:02;;;;;;;10.30;2.35;;;;;;;-148.88;87.47;76583.69;4994024;28;20034;-74
2022/07/08 03:03:27;;;;;;;16.77;2.80;;;;;;;-148.88;86.70;76579.63;4994326;28;20054;-73
2022/07/08 03:05:52;;;;;;;8.15;2.22;;;;;;;-148.88;87.28;76585.72;4994100;28;20028;-74
2022/07/08 03:08:18;;;;;;;15.15;2.70;;;;;;;-148.88;87.83;76589.78;4993918;28;20026;-74
2022/07/08 03:10:43;;;;;;;11.93;2.35;;;;;;;-148.88;87.43;76581.66;4992317;28;20034;-74
2022/07/08 03:13:08;;;;;;;10.07;2.70;;;;;;;-148.88;87.50;76581.66;4992536;28;20404;-73
2022/07/08 03:15:34;;;;;;;10.93;2.90;;;;;;;-148.88;87.31;76579.63;4992610;28;20030;-73
2022/07/08 03:17:59;;;;;;;9.75;2.30;;;;;;;-148.88;87.43;76577.59;4993768;28;20030;-73
2022/07/08 03:20:24;;;;;;;8.30;2.70;;;;;;;-148.88;87.38;76587.75;4993827;28;20403;-73
2022/07/08 03:22:50;;;;;;;9.70;2.88;;;;;;;-148.88;87.03;76585.72;4994049;28;20026;-74
2022/07/08 03:25:15;;;;;;;12.77;2.55;;;;;;;-148.88;87.34;76593.84;4994353;28;20022;-74
2022/07/08 03:27:41;;;;;;;13.60;2.60;;;;;;;-148.88;87.76;76593.84;4993788;28;20387;-74
2022/07/08 03:30:07;;;;;;;10.02;2.53;;;;;;;-148.88;88.22;76604.00;4993968;28;20026;-74
2022/07/08 03:32:32;;;;;;;9.98;2.70;;;;;;;-148.88;88.70;76601.97;4993694;28;20607;-74
2022/07/08 03:34:58;;;;;;;9.43;2.70;;;;;;;-148.88;88.48;76606.06;4993981;28;20494;-74
2022/07/08 03:37:25;;;;;;;11.10;2.67;;;;;;;-148.88;89.09;76606.06;4993658;28;20030;-74
2022/07/08 03:39:53;;;;;;;11.18;2.60;;;;;;;-148.88;87.81;76593.84;4993735;28;20026;-74
2022/07/08 03:42:19;;;;;;;8.20;2.30;;;;;;;-148.88;87.87;76599.94;4993664;28;20025;-75
2022/07/08 03:44:44;;;;;;;10.85;2.70;;;;;;;-148.88;87.72;76597.91;4993623;28;20487;-74
2022/07/08 03:47:10;;;;;;;11.93;2.60;;;;;;;-148.88;88.34;76610.13;4993605;28;20076;-76
2022/07/08 03:49:35;;;;;;;10.13;2.60;;;;;;;-148.88;87.99;76610.13;4993656;28;20027;-75
2022/07/08 03:52:01;;;;;;;9.23;2.15;;;;;;;-148.88;88.29;76616.22;4993490;28;20073;-75
2022/07/08 03:54:27;;;;;;;9.73;2.65;;;;;;;-148.88;88.50;76628.41;4992220;28;20026;-75
2022/07/08 03:56:53;;;;;;;10.52;2.78;;;;;;;-148.88;88.96;76636.53;4993820;28;20392;-75
2022/07/08 03:59:18;;;;;;;11.45;2.75;;;;;;;-148.88;88.58;76630.44;4993387;28;20069;-76
2022/07/08 04:01:44;;;;;;;10.88;3.17;;;;;;;-148.88;88.62;76638.56;4993509;28;20100;-75
2022/07/08 04:04:09;;;;;;;10.13;2.85;;;;;;;-148.88;88.87;76644.66;4993473;28;20472;-75
2022/07/08 04:06:35;;;;;;;9.10;2.50;;;;;;;-148.88;88.31;76642.63;4993637;28;20356;-75
2022/07/08 04:09:00;;;;;;;8.60;2.40;;;;;;;-148.88;88.12;76630.44;4993361;28;20033;-75
2022/07/08 04:11:26;;;;;;;13.00;3.10;;;;;;;-148.88;88.40;76646.69;4993696;28;20080;-75
2022/07/08 04:13:51;;;;;;;12.57;2.42;;;;;;;-148.88;88.80;76650.75;4992006;28;20050;-75
2022/07/08 04:16:17;;;;;;;11.65;2.40;;;;;;;-148.88;88.51;76646.69;4993355;28;20030;-75
2022/07/08 04:18:42;;;;;;;10.43;2.67;;;;;;;-148.88;89.13;76650.75;4993306;28;20022;-75
2022/07/08 04:21:08;;;;;;;10.07;2.47;;;;;;;-148.88;88.93;76652.78;4994334;28;20094;-76
2022/07/08 04:23:34;;;;;;;13.25;2.75;;;;;;;-148.88;88.60;76638.56;4997077;28;20112;-77
2022/07/08 04:26:00;;;;;;;7.97;2.47;;;;;;;-148.88;87.68;76622.31;4997269;28;20085;-76
2022/07/08 04:28:25;;;;;;;11.93;2.45;;;;;;;-148.88;88.30;76650.75;4996934;28;20030;-76
2022/07/08 04:30:51;;;;;;;9.85;2.40;;;;;;;-148.88;88.50;76646.69;4996811;28;20522;-75
2022/07/08 04:33:16;;;;;;;7.55;2.45;;;;;;;-148.88;88.50;76650.75;4997094;28;20435;-77
2022/07/08 04:35:41;;;;;;;10.23;2.78;;;;;;;-148.88;88.24;76644.66;4996768;28;20022;-75
2022/07/08 04:38:07;;;;;;;10.32;2.55;;;;;;;-148.88;88.16;76644.66;4995470;28;20034;-74
2022/07/08 04:40:32;;;;;;;10.70;2.70;;;;;;;-148.88;87.87;76638.56;4996608;28;20041;-74
2022/07/08 04:42:58;;;;;;;9.25;2.28;;;;;;;-148.88;87.57;76634.50;4996958;28;20033;-74
2022/07/08 04:45:23;;;;;;;12.07;2.35;;;;;;;-148.88;87.53;76632.47;4996614;28;20026;-74
2022/07/08 04:47:49;;;;;;;9.15;2.40;;;;;;;-148.88;87.44;76630.44;4996571;28;20502;-74
2022/07/08 04:50:15;;;;;;;11.68;2.85;;;;;;;-148.88;87.18;76630.44;4996467;28;20045;-74
2022/07/08 04:52:40;;;;;;;8.30;2.42;;;;;;;-148.88;87.55;76636.53;4996384;28;20066;-74
2022/07/08 04:55:06;;;;;;;9.02;2.47;;;;;;;-148.88;87.06;76626.38;4996625;28;20027;-74
2022/07/08 04:57:32;;;;;;;9.98;2.40;;;;;;;-148.88;87.85;76630.44;4996324;28;20042;-74
2022/07/08 04:59:59;;;;;;;7.65;2.03;;;;;;;-148.88;86.63;76626.38;4996183;28;20475;-74
2022/07/08 05:02:25;;;;;;;8.32;2.53;;;;;;;-148.88;87.50;76618.25;5044897;23;20058;-85
2022/07/08 05:04:51;;;;;;;8.50;2.33;;;;;;;-148.88;86.20;76599.94;5000057;28;20022;-86
2022/07/08 05:07:17;;;;;;;10.18;2.88;;;;;;;-148.88;86.66;76618.25;4997991;28;20112;-86
2022/07/08 05:09:42;;;;;;;11.88;2.53;;;;;;;-148.88;86.62;76618.25;4998828;28;20031;-88
2022/07/08 05:12:11;;;;;;;9.35;2.72;;;;;;;-148.88;86.35;76610.13;4997572;28;20073;-86
2022/07/08 05:14:37;;;;;;;9.82;2.30;;;;;;;-148.88;87.03;76610.13;4996300;28;20022;-86
2022/07/08 05:17:11;;;;;;;8.13;2.30;;;;;;;-148.88;86.32;76604.00;4995945;28;20450;-85
2022/07/08 05:19:42;;;;;;;14.18;2.70;;;;;;;-148.88;85.90;76601.97;4995322;28;20057;-85
2022/07/08 05:22:13;;;;;;;9.07;2.15;;;;;;;-148.88;85.40;76585.72;4995934;28;20028;-86
2022/07/08 05:24:39;;;;;;;9.60;2.15;;;;;;;-148.88;85.32;76585.72;4996474;28;20022;-85
2022/07/08 05:27:06;;;;;;;9.20;2.45;;;;;;;-148.88;85.16;76601.97;4994944;28;20026;-85
2022/07/08 05:29:55;;;;;;;8.73;2.30;;;;;;;-148.88;85.16;76593.84;4994794;28;20044;-85
2022/07/08 05:32:23;;;;;;;8.15;2.40;;;;;;;-148.88;84.95;76589.78;4995178;28;20396;-84
2022/07/08 05:35:04;;;;;;;8.35;2.22;;;;;;;-148.88;85.02;76589.78;4995265;28;20116;-84
2022/07/08 05:37:42;;;;;;;8.85;2.40;;;;;;;-148.88;85.22;76591.81;4994278;28;20030;-85
2022/07/08 05:40:17;;;;;;;10.90;2.10;;;;;;;-148.88;84.58;76585.72;4995355;28;20073;-85
2022/07/08 05:42:42;;;;;;;10.35;2.47;;;;;;;-148.88;84.37;76589.78;4995278;28;20015;-85
2022/07/08 05:45:09;;;;;;;9.27;1.95;;;;;;;-148.88;85.15;76591.81;4994825;28;20041;-85
2022/07/08 05:47:38;;;;;;;10.13;2.40;;;;;;;-148.88;83.72;76595.88;4994537;28;20018;-85
2022/07/08 05:50:04;;;;;;;9.35;2.30;;;;;;;-148.88;83.85;76581.66;4994878;28;20481;-85
2022/07/08 05:52:29;;;;;;;10.13;2.33;;;;;;;-148.88;83.53;76565.41;4994807;28;20099;-84
2022/07/08 05:54:55;;;;;;;9.90;2.20;;;;;;;-148.88;83.84;76559.31;4995047;28;20022;-85
2022/07/08 05:57:28;;;;;;;10.48;2.05;;;;;;;-148.88;82.73;76569.47;4995513;28;20102;-84
2022/07/08 05:59:56;;;;;;;6.10;2.08;;;;;;;-148.88;82.69;76561.34;4994830;28;20034;-84
2022/07/08 06:02:25;;;;;;;11.80;2.50;;;;;;;-148.88;82.33;76565.41;4994567;28;20023;-87
2022/07/08 06:04:50;;;;;;;7.53;2.22;;;;;;;-148.88;81.98;76561.34;4994207;28;20030;-86
2022/07/08 06:07:16;;;;;;;9.88;2.08;;;;;;;-148.88;81.88;76555.25;4994211;28;20037;-87
2022/07/08 06:10:00;;;;;;;8.80;2.00;;;;;;;-148.88;82.53;76545.09;4994275;28;20133;-86
2022/07/08 06:12:25;;;;;;;10.80;2.65;;;;;;;-148.88;81.95;76541.03;4995100;28;20076;-85
2022/07/08 06:14:50;;;;;;;6.90;2.08;;;;;;;-148.88;82.37;76553.22;4993941;28;20428;-84
2022/07/08 06:17:19;;;;;;;12.75;2.78;;;;;;;-148.88;81.91;76547.13;4994083;28;20145;-85
2022/07/08 06:19:44;;;;;;;10.65;2.38;;;;;;;-148.88;80.88;76547.13;4994802;28;20468;-85
2022/07/08 06:22:18;;;;;;;10.93;2.05;;;;;;;-148.88;81.50;76563.38;4994532;28;20023;-85
2022/07/08 06:24:49;;;;;;;;;;;;;;;-148.88;81.21;76557.28;4994885;28;20034;-84
2022/07/08 06:27:14;;;;;;;11.68;2.50;;;;;;;-148.88;80.90;76561.34;4993955;28;20427;-84
2022/07/08 06:29:39;;;;;;;10.43;2.53;;;;;;;-148.88;81.20;76553.22;4993827;28;20057;-84
2022/07/08 06:32:59;;;;;;;11.65;2.55;;;;;;;-148.88;81.68;76563.38;4994486;28;20049;-83
2022/07/08 06:35:05;;;;;;;8.80;2.35;;;;;;;-148.88;81.56;76545.09;4987650;28;20042;-85
2022/07/08 06:37:47;;;;;;;8.05;2.10;;;;;;;-148.88;80.54;76553.22;4994946;28;20026;-84
2022/07/08 06:40:34;;;;;;;13.70;2.78;;;;;;;-148.88;81.50;76541.03;4995030;28;20133;-86
2022/07/08 06:42:58;;;;;;;12.35;2.72;;;;;;;-148.88;80.89;76530.88;4995659;28;20026;-85
2022/07/08 06:45:23;;;;;;;14.15;2.30;;;;;;;-148.88;80.74;76528.84;4994044;28;20037;-85
2022/07/08 06:48:08;;;;;;;7.15;2.13;;;;;;;-148.88;81.26;76524.78;4995455;28;20041;-84
2022/07/08 06:50:40;;;;;;;7.50;2.35;;;;;;;-148.88;80.14;76500.41;4995856;28;20077;-84
2022/07/08 06:53:05;;;;;;;8.65;1.85;;;;;;;-148.88;79.44;76492.28;4994051;28;20030;-85
2022/07/08 06:55:37;;;;;;;6.97;2.17;;;;;;;-148.88;78.93;76488.22;4994515;28;20029;-85
2022/07/08 06:58:14;;;;;;;11.10;2.63;;;;;;;-148.88;78.99;76488.22;4995336;28;20026;-84
2022/07/08 07:00:48;;;;;;;6.47;2.00;;;;;;;-148.88;78.15;76478.06;4995043;28;20374;-86
2022/07/08 07:03:14;;;;;;;9.02;1.88;;;;;;;-148.88;76.02;76484.16;4995492;28;20504;-85
2022/07/08 07:05:53;;;;;;;8.35;2.10;;;;;;;-148.88;77.06;76488.22;4995300;28;20026;-86
2022/07/08 07:08:19;;;;;;;7.93;1.90;;;;;;;-148.88;76.44;76469.94;4995589;28;20120;-85
2022/07/08 07:10:50;;;;;;;11.82;2.08;;;;;;;-148.88;75.54;76443.53;4996676;28;20411;-85
2022/07/08 07:13:37;;;;;;;;;;;;;;;;;;;;;
2022/07/08 07:16:06;;;;;;;10.07;2.13;;;;;;;-148.88;73.22;76437.44;4998112;28;20113;-85
2022/07/08 07:18:31;;;;;;;8.98;2.58;;;;;;;-148.88;71.55;76439.47;4997059;28;20485;-85
2022/07/08 07:21:00;;;;;;;8.95;2.10;;;;;;;-148.88;71.12;76455.72;4994002;28;20084;-85
2022/07/08 07:23:39;;;;;;;6.85;2.00;;;;;;;-148.88;71.42;76459.78;4992885;28;20030;-84
2022/07/08 07:26:13;;;;;;;11.90;2.17;;;;;;;-148.88;71.20;76455.72;4991829;28;20034;-84
2022/07/08 07:28:38;;;;;;;9.75;1.90;;;;;;;-148.88;71.94;76459.78;4999330;28;20527;-87
2022/07/08 07:31:09;;;;;;;8.80;2.10;;;;;;;-148.88;72.50;76453.69;4993062;28;20026;-85
2022/07/08 07:33:58;;;;;;;6.63;1.90;;;;;;;-148.88;73.79;76443.53;4991880;28;20034;-85
2022/07/08 07:36:23;;;;;;;7.55;2.20;;;;;;;-148.88;72.72;76455.72;4993291;28;20124;-86
2022/07/08 07:38:48;;;;;;;8.25;2.30;;;;;;;-148.88;73.68;76465.88;4992336;28;20018;-85
2022/07/08 07:41:14;;;;;;;9.15;2.05;;;;;;;-148.88;73.00;76478.06;4992940;28;20026;-85
2022/07/08 07:43:39;;;;;;;7.32;1.92;;;;;;;-148.88;70.87;76451.66;4992310;28;20076;-86
2022/07/08 07:46:05;;;;;;;9.93;1.67;;;;;;;-148.88;71.56;76443.53;4991709;28;20042;-85
2022/07/08 07:48:46;;;;;;;6.30;1.65;;;;;;;-148.88;71.45;76451.66;4993616;28;20082;-85
2022/07/08 07:51:12;;;;;;;10.27;2.10;;;;;;;-148.88;71.24;76413.03;4992698;28;20027;-84
2022/07/08 07:53:40;;;;;;;6.75;1.88;;;;;;;-148.88;70.65;76431.34;4992100;28;20015;-85
2022/07/08 07:56:12;;;;;;;6.60;2.08;;;;;;;-148.88;70.18;76431.34;4996650;28;20096;-85
2022/07/08 07:58:38;;;;;;;9.95;2.38;;;;;;;-148.88;71.65;76394.75;4996823;28;20022;-84
2022/07/08 08:01:04;;;;;;;6.22;1.83;;;;;;;-148.88;69.03;76370.38;4996073;28;20098;-84
2022/07/08 08:03:29;;;;;;;8.05;1.80;;;;;;;-148.88;69.68;76366.31;4996410;28;20110;-84
2022/07/08 08:05:54;;;;;;;6.43;1.70;;;;;;;-148.88;69.68;76374.44;4995968;28;20018;-85
2022/07/08 08:08:24;;;;;;;5.63;1.95;;;;;;;-148.88;69.64;76380.53;4996339;28;20045;-85
2022/07/08 08:10:51;;;;;;;9.85;1.70;;;;;;;-148.88;70.23;76382.56;4995997;28;20034;-86
2022/07/08 08:13:18;;;;;;;9.20;1.92;;;;;;;-148.88;70.16;76341.94;4996264;28;20416;-85
2022/07/08 08:15:46;;;;;;;5.97;1.70;;;;;;;-148.88;68.76;76346.00;4996566;28;20492;-85
2022/07/08 08:18:11;;;;;;;9.48;1.92;;;;;;;-148.88;68.90;76356.16;4996247;28;20030;-85
2022/07/08 08:20:40;;;;;;;8.82;2.15;;;;;;;-148.88;67.66;76350.06;4996090;28;20026;-84
2022/07/08 08:23:11;;;;;;;8.07;1.70;;;;;;;-148.88;68.29;76374.44;4996077;28;20022;-85
2022/07/08 08:25:37;;;;;;;6.40;1.70;;;;;;;-148.88;69.50;76333.81;4996250;28;20105;-83
2022/07/08 08:28:14;;;;;;;6.95;2.15;;;;;;;-148.88;68.02;76297.25;4996011;28;20113;-85
2022/07/08 08:30:49;;;;;;;8.18;1.95;;;;;;;-148.88;67.08;76323.66;4996452;28;20519;-84
2022/07/08 08:33:14;;;;;;;9.05;2.05;;;;;;;-148.88;68.47;76283.03;4996818;28;20042;-84
2022/07/08 08:35:50;;;;;;;6.97;1.65;;;;;;;-148.88;68.66;76256.63;4997010;28;20022;-85
2022/07/08 08:38:16;;;;;;;7.53;1.75;;;;;;;-148.88;66.81;76283.03;4996382;28;20561;-86
2022/07/08 08:40:42;;;;;;;6.00;1.77;;;;;;;-148.88;67.23;76285.06;4996008;28;20113;-85
2022/07/08 08:43:14;;;;;;;11.20;2.25;;;;;;;-148.88;68.68;76319.59;4995798;28;20027;-84
2022/07/08 08:45:42;;;;;;;6.40;1.98;;;;;;;-148.88;68.58;76287.09;4996345;28;20026;-85
2022/07/08 08:48:17;;;;;;;5.07;1.77;;;;;;;-148.88;68.86;76289.13;4996023;28;20029;-85
2022/07/08 08:50:55;;;;;;;8.77;2.35;;;;;;;-148.88;66.91;76297.25;4996605;28;20026;-84
2022/07/08 08:54:00;;;;;;;6.70;1.77;;;;;;;-148.88;66.85;76313.50;4993647;28;20447;-84
2022/07/08 08:56:19;;;;;;;9.43;2.15;;;;;;;-148.88;67.95;76317.56;4995984;28;20046;-84
2022/07/08 08:58:55;;;;;;;11.75;2.30;;;;;;;-148.88;68.63;76301.31;4997100;28;20022;-85
2022/07/08 09:01:23;;;;;;;11.23;2.40;;;;;;;-148.88;68.27;76287.09;4999615;28;20030;-85
2022/07/08 09:03:49;;;;;;;5.80;1.80;;;;;;;-148.88;65.71;76270.84;5001024;28;20076;-84
2022/07/08 09:06:14;;;;;;;6.18;1.90;;;;;;;-148.88;67.95;76216.00;4999157;28;20121;-84
2022/07/08 09:08:40;;;;;;;8.13;2.10;;;;;;;-148.88;64.65;76187.56;5001167;28;20074;-84
2022/07/08 09:11:06;;;;;;;7.93;2.33;;;;;;;-148.88;65.41;76203.81;5001377;28;20026;-84
2022/07/08 09:13:31;;;;;;;10.57;2.08;;;;;;;-148.88;64.61;76175.38;4997240;28;20018;-84
2022/07/08 09:15:58;;;;;;;7.18;1.63;;;;;;;-148.88;63.22;76185.53;4998279;28;20049;-84
2022/07/08 09:18:38;;;;;;;9.40;1.70;;;;;;;-148.88;64.50;76167.25;4998572;28;20058;-84
2022/07/08 09:21:03;;;;;;;8.15;1.90;;;;;;;-148.88;62.88;76181.47;4999530;28;20026;-84
2022/07/08 09:23:47;;;;;;;6.72;1.73;;;;;;;-148.88;64.48;76177.41;4999802;28;20050;-83
2022/07/08 09:26:13;;;;;;;6.78;1.80;;;;;;;-148.88;64.05;76191.63;5000917;28;20105;-83
2022/07/08 09:28:41;;;;;;;6.53;1.83;;;;;;;-148.88;64.92;76124.56;5000829;28;20050;-84
2022/07/08 09:31:12;;;;;;;9.60;1.85;;;;;;;-148.88;63.03;76045.34;5001687;28;20552;-84
2022/07/08 09:33:41;;;;;;;8.13;1.70;;;;;;;-148.88;64.07;76033.16;5002363;28;20090;-83
2022/07/08 09:36:08;;;;;;;9.18;1.98;;;;;;;-148.88;63.52;76069.72;5000497;28;20077;-84
2022/07/08 09:38:38;;;;;;;13.38;2.17;;;;;;;-148.88;64.23;76128.66;4997794;28;20023;-85
2022/07/08 09:41:15;;;;;;;9.75;1.75;;;;;;;-148.88;63.33;76136.78;4998331;28;20515;-85
2022/07/08 09:43:49;;;;;;;9.07;2.72;;;;;;;-148.88;63.40;76140.84;4999745;28;20037;-84
2022/07/08 09:46:14;;;;;;;5.57;1.80;;;;;;;-148.88;62.75;76136.78;4999142;28;20527;-84
2022/07/08 09:48:40;;;;;;;6.35;1.60;;;;;;;-148.88;63.64;76108.31;4998218;28;20581;-85
2022/07/08 09:51:08;;;;;;;8.60;1.83;;;;;;;-148.88;63.09;76142.88;4995995;28;20032;-82
2022/07/08 09:53:34;;;;;;;7.15;1.77;;;;;;;-148.88;63.73;76163.19;4997383;28;20086;-84
2022/07/08 09:56:10;;;;;;;8.93;1.75;;;;;;;-148.88;63.81;76126.59;4996724;28;20056;-85
2022/07/08 09:58:37;;;;;;;9.07;1.80;;;;;;;-148.88;63.40;76088.00;4996357;28;20105;-86
2022/07/08 10:01:04;;;;;;;5.13;1.55;;;;;;;-148.88;62.32;76114.41;4994739;28;20030;-86
2022/07/08 10:03:35;;;;;;;9.30;1.90;;;;;;;-148.88;61.68;76136.78;4994195;28;20117;-88
2022/07/08 10:06:01;;;;;;;5.75;1.98;;;;;;;-148.88;62.17;76112.41;4995735;28;20027;-87
2022/07/08 10:08:29;;;;;;;6.22;2.50;;;;;;;-148.88;62.67;76077.84;4993873;28;20029;-86
2022/07/08 10:10:57;;;;;;;9.98;2.17;;;;;;;-148.88;62.53;76090.03;4993571;28;20026;-88
2022/07/08 10:13:24;;;;;;;8.20;2.13;;;;;;;-148.88;63.45;76090.03;4994400;28;20042;-86
2022/07/08 10:16:00;;;;;;;8.27;2.35;;;;;;;-148.88;62.65;76098.16;4993590;28;20492;-86
2022/07/08 10:18:47;;;;;;;6.28;2.17;;;;;;;-148.88;63.16;76104.25;4992886;28;20035;-86
2022/07/08 10:21:17;;;;;;;8.57;2.30;;;;;;;-148.88;63.30;76069.72;4994194;28;20137;-86
2022/07/08 10:23:55;;;;;;;8.45;2.28;;;;;;;-148.88;63.48;76085.97;4993521;28;20127;-86
2022/07/08 10:26:28;;;;;;;6.78;1.92;;;;;;;-148.88;62.79;76061.59;4995017;28;20033;-87
2022/07/08 10:29:27;;;;;;;5.43;1.90;;;;;;;-148.88;63.25;76049.41;4993608;28;20057;-86
2022/07/08 10:31:53;;;;;;;9.80;2.38;;;;;;;-148.88;62.42;76053.47;4993264;28;20027;-87
2022/07/08 10:34:23;;;;;;;8.30;2.15;;;;;;;-148.88;62.55;76049.41;4993110;28;20037;-85
2022/07/08 10:36:50;;;;;;;7.07;2.30;;;;;;;-148.88;64.31;76039.25;4993067;28;20026;-85
2022/07/08 10:39:46;;;;;;;7.97;1.98;;;;;;;-148.88;63.89;76008.78;4993664;28;20026;-84
2022/07/08 10:42:22;;;;;;;7.65;2.25;;;;;;;-148.88;62.37;75986.44;4993930;28;20053;-86
2022/07/08 10:45:18;;;;;;;7.70;2.17;;;;;;;-148.88;62.20;75935.66;4993844;28;20057;-86
2022/07/08 10:48:13;;;;;;;8.77;2.17;;;;;;;-148.88;61.87;75984.41;4988086;28;20061;-86
2022/07/08 10:50:41;;;;;;;9.18;2.05;;;;;;;-148.88;62.72;75962.06;4993461;28;20453;-85
2022/07/08 10:53:06;;;;;;;8.32;2.40;;;;;;;-148.88;62.95;75943.78;4994002;28;20026;-85
2022/07/08 10:55:40;;;;;;;12.52;3.20;;;;;;;-148.88;64.19;75955.97;4993758;28;20023;-85
2022/07/08 10:58:16;;;;;;;6.40;2.30;;;;;;;-148.88;62.44;75974.25;4995377;28;20033;-84
2022/07/08 11:03:13;;;;;;;5.25;1.95;;;;;;;-148.88;62.95;75955.97;5012188;28;20419;-74
2022/07/08 11:05:40;;;;;;;8.05;2.30;;;;;;;-148.88;65.21;76008.78;5014936;28;20022;-75
2022/07/08 11:08:20;;;;;;;8.73;2.10;;;;;;;-148.88;64.83;76006.75;5013350;28;20506;-75
2022/07/08 11:10:47;;;;;;;7.40;2.30;;;;;;;-148.88;64.71;75980.34;5013421;28;20395;-74
2022/07/08 11:13:13;;;;;;;8.75;2.65;;;;;;;-148.88;63.44;76012.84;5014231;28;20022;-74
2022/07/08 11:15:38;;;;;;;7.40;2.10;;;;;;;-148.88;64.18;75996.59;5014173;28;20434;-75
2022/07/08 11:18:04;;;;;;;10.00;2.50;;;;;;;-148.88;65.98;75996.59;5015373;28;20105;-75
2022/07/08 11:20:31;;;;;;;4.65;2.05;;;;;;;-148.88;64.21;75972.22;5015556;28;20036;-74
2022/07/08 11:22:57;;;;;;;8.25;2.20;;;;;;;-148.88;63.84;75968.16;5014898;28;20069;-76